Time;durP1;ratioP1;P1;durP2;ratioP2;P2;SDS_P1;SDS_P2;PMS_P1;PMS_P2;Temp;Humidity;BMP_temperature;BMP_pressure;BME280_temperature;BME280_humidity;BME280_pressure;Samples;Min_cycle;Max_cycle;Signal;HPM_P1;HPM_P2
2023/01/08 00:03:52;;;;;;;4.78;3.28;;;15.70;74.00;;;;;;10406448;28;20201;-61
2023/01/08 00:08:52;;;;;;;4.10;2.90;;;15.60;73.90;;;;;;10405086;28;20014;-61
2023/01/08 00:13:53;;;;;;;2.90;2.60;;;15.60;74.00;;;;;;10404534;28;20026;-61
2023/01/08 00:18:54;;;;;;;3.17;2.75;;;15.60;74.00;;;;;;10421304;28;20048;-61
2023/01/08 00:23:54;;;;;;;2.80;2.30;;;15.70;73.90;;;;;;10404314;28;20180;-61
2023/01/08 00:28:55;;;;;;;3.17;2.20;;;15.70;73.90;;;;;;10411429;28;20010;-61
2023/01/08 00:33:56;;;;;;;3.40;1.95;;;15.60;73.90;;;;;;10404241;28;20028;-62
2023/01/08 00:38:59;;;;;;;2.65;2.40;;;15.60;74.00;;;;;;10405943;28;20072;-61
2023/01/08 00:44:00;;;;;;;2.70;2.30;;;15.60;73.90;;;;;;10404051;28;20060;-62
2023/01/08 00:49:00;;;;;;;2.55;2.08;;;15.60;73.90;;;;;;10403975;28;20125;-61
2023/01/08 00:54:02;;;;;;;1.83;1.58;;;15.60;73.90;;;;;;10428043;28;20362;-61
2023/01/08 00:59:02;;;;;;;3.00;2.13;;;15.60;73.90;;;;;;10413161;28;20827;-62
2023/01/08 01:04:03;;;;;;;2.47;1.30;;;15.60;73.90;;;;;;10411626;28;20120;-61
2023/01/08 01:09:04;;;;;;;3.08;1.95;;;15.60;73.80;;;;;;10412064;28;20018;-62
2023/01/08 01:14:04;;;;;;;2.40;1.70;;;15.60;73.80;;;;;;10411645;28;20076;-61
2023/01/08 01:19:05;;;;;;;2.97;1.88;;;15.60;73.80;;;;;;10411363;28;20228;-61
2023/01/08 01:24:06;;;;;;;1.40;1.00;;;15.60;73.80;;;;;;10411170;28;20049;-61
2023/01/08 01:29:07;;;;;;;2.10;1.50;;;15.60;73.70;;;;;;10418184;28;20120;-61
2023/01/08 01:34:09;;;;;;;1.90;1.30;;;15.60;73.70;;;;;;10410811;28;20021;-62
2023/01/08 01:39:10;;;;;;;1.83;1.30;;;15.60;73.80;;;;;;10410938;28;20021;-62
2023/01/08 01:44:41;;;;;;;2.08;1.20;;;15.60;73.80;;;;;;10410572;28;20029;-62
2023/01/08 01:49:56;;;;;;;2.67;1.30;;;15.60;73.80;;;;;;10411710;28;20024;-61
2023/01/08 01:55:00;;;;;;;1.75;1.35;;;15.60;73.80;;;;;;10394760;28;20632;-61
2023/01/08 02:00:04;;;;;;;2.33;1.40;;;15.60;73.80;;;;;;10409871;28;20020;-62
2023/01/08 02:05:06;;;;;;;2.42;1.10;;;15.60;73.80;;;;;;10424981;28;20493;-62
2023/01/08 02:10:34;;;;;;;1.80;1.25;;;15.60;73.60;;;;;;10392878;28;20029;-62
2023/01/08 02:15:50;;;;;;;2.22;1.55;;;15.60;73.60;;;;;;10409055;28;20033;-61
2023/01/08 02:21:08;;;;;;;1.13;1.00;;;15.60;73.60;;;;;;10409063;28;20473;-62
2023/01/08 02:26:32;;;;;;;1.55;1.02;;;15.60;73.50;;;;;;10415928;28;20694;-61
2023/01/08 02:31:34;;;;;;;2.13;1.23;;;15.70;73.40;;;;;;10408774;28;20076;-60
2023/01/08 02:37:01;;;;;;;1.63;0.98;;;15.70;73.40;;;;;;10408569;28;20025;-60
2023/01/08 02:42:29;;;;;;;1.38;1.00;;;15.60;73.40;;;;;;10409305;28;20038;-61
2023/01/08 02:47:45;;;;;;;1.98;1.27;;;15.60;73.30;;;;;;10410449;28;20061;-62
2023/01/08 02:53:05;;;;;;;1.50;0.80;;;15.60;73.40;;;;;;10395069;28;20025;-61
2023/01/08 02:58:07;;;;;;;1.50;0.93;;;15.60;73.40;;;;;;10407447;28;20029;-62
2023/01/08 03:03:24;;;;;;;1.33;0.90;;;15.60;73.40;;;;;;10407573;28;20061;-61
2023/01/08 03:08:26;;;;;;;2.00;1.17;;;15.60;73.40;;;;;;10407170;28;20698;-61
2023/01/08 03:13:46;;;;;;;2.03;0.90;;;15.60;73.40;;;;;;10407299;28;20116;-61
2023/01/08 03:18:51;;;;;;;;;;;15.60;73.40;;;;;;10422599;28;20017;-62
2023/01/08 03:23:52;;;;;;;1.98;0.90;;;15.60;73.40;;;;;;10422758;28;20550;-62
2023/01/08 03:28:55;;;;;;;1.02;0.68;;;15.70;74.00;;;;;;10414852;28;20026;-63
2023/01/08 03:33:58;;;;;;;1.15;0.80;;;15.70;73.20;;;;;;10406217;28;20057;-61
2023/01/08 03:39:24;;;;;;;1.80;0.85;;;15.70;73.10;;;;;;10406347;28;20047;-59
2023/01/08 03:44:25;;;;;;;0.98;0.65;;;15.70;73.20;;;;;;10405089;28;20037;-63
2023/01/08 03:49:28;;;;;;;1.58;1.20;;;15.70;73.30;;;;;;10405726;28;20018;-61
2023/01/08 03:54:32;;;;;;;2.30;1.02;;;15.60;73.20;;;;;;10404893;28;20028;-61
2023/01/08 03:59:33;;;;;;;2.15;0.90;;;15.60;73.20;;;;;;10405214;28;20018;-62
2023/01/08 04:04:34;;;;;;;1.52;0.98;;;15.70;73.30;;;;;;10406637;28;20075;-62
2023/01/08 04:09:34;;;;;;;2.10;1.00;;;15.70;73.20;;;;;;10421906;28;20014;-62
2023/01/08 04:14:35;;;;;;;0.98;0.60;;;15.60;73.30;;;;;;10404949;28;20101;-62
2023/01/08 04:19:36;;;;;;;1.30;0.82;;;15.60;73.20;;;;;;10421214;28;20017;-62
2023/01/08 04:24:36;;;;;;;1.17;0.77;;;15.60;73.30;;;;;;10407526;28;20645;-63
2023/01/08 04:29:37;;;;;;;1.80;1.17;;;15.60;73.30;;;;;;10409695;28;20090;-62
2023/01/08 04:34:38;;;;;;;1.40;0.90;;;15.60;73.30;;;;;;10404521;28;20047;-63
2023/01/08 04:39:38;;;;;;;2.03;0.90;;;15.60;73.20;;;;;;10420598;28;20061;-61
2023/01/08 04:44:39;;;;;;;0.77;0.50;;;15.60;73.20;;;;;;10404071;28;20115;-62
2023/01/08 04:49:39;;;;;;;0.82;0.60;;;15.60;73.20;;;;;;10405127;28;20525;-62
2023/01/08 04:54:40;;;;;;;1.17;0.60;;;15.60;73.20;;;;;;10403830;28;20341;-59
2023/01/08 04:59:41;;;;;;;1.38;1.00;;;15.60;73.20;;;;;;10419743;28;20041;-61
2023/01/08 05:04:41;;;;;;;2.13;0.60;;;15.60;73.20;;;;;;10404860;28;20109;-61
2023/01/08 05:09:42;;;;;;;1.20;0.75;;;15.60;73.90;;;;;;10420034;28;20021;-62
2023/01/08 05:14:43;;;;;;;1.10;0.68;;;15.60;73.30;;;;;;10403408;28;20096;-62
2023/01/08 05:19:43;;;;;;;2.20;0.73;;;15.60;73.30;;;;;;10404329;28;20026;-62
2023/01/08 05:24:44;;;;;;;1.05;0.60;;;15.50;73.30;;;;;;10408796;28;20116;-62
2023/01/08 05:29:44;;;;;;;1.08;0.60;;;15.50;73.30;;;;;;10420277;28;20112;-62
2023/01/08 05:34:45;;;;;;;1.17;0.73;;;15.60;73.20;;;;;;10403390;28;20484;-61
2023/01/08 05:39:46;;;;;;;1.13;0.70;;;15.60;73.20;;;;;;10407736;28;20112;-61
2023/01/08 05:44:46;;;;;;;1.02;0.70;;;15.60;73.10;;;;;;10443153;28;20034;-62
2023/01/08 05:49:47;;;;;;;1.98;0.77;;;15.60;73.10;;;;;;10410526;28;20104;-61
2023/01/08 05:54:48;;;;;;;0.77;0.60;;;15.60;73.20;;;;;;10410390;28;20140;-62
2023/01/08 05:59:48;;;;;;;1.52;0.50;;;15.60;73.00;;;;;;10411309;28;20044;-62
2023/01/08 06:04:49;;;;;;;1.50;0.68;;;15.60;73.00;;;;;;10426456;28;20117;-62
2023/01/08 06:09:50;;;;;;;0.55;0.40;;;15.60;73.00;;;;;;10411093;28;20524;-61
2023/01/08 06:14:51;;;;;;;1.15;0.50;;;15.60;73.00;;;;;;10426203;28;20415;-62
2023/01/08 06:19:51;;;;;;;1.13;0.60;;;15.60;73.00;;;;;;10409680;28;20027;-61
2023/01/08 06:24:52;;;;;;;2.65;0.70;;;15.60;73.10;;;;;;10415868;28;20167;-63
2023/01/08 06:29:53;;;;;;;7.38;1.42;;;15.60;73.20;;;;;;10411159;28;20021;-61
2023/01/08 06:34:54;;;;;;;6.20;1.55;;;15.70;73.80;;;;;;10409277;28;20453;-61
2023/01/08 06:39:54;;;;;;;6.43;0.98;;;15.90;74.10;;;;;;10408663;28;20630;-62
2023/01/08 06:44:55;;;;;;;5.75;1.10;;;16.00;74.60;;;;;;10408420;28;20481;-61
2023/01/08 06:49:57;;;;;;;7.18;1.33;;;16.00;75.10;;;;;;10424173;28;20477;-63
2023/01/08 06:54:58;;;;;;;5.03;1.05;;;16.00;74.50;;;;;;10408627;28;20369;-62
2023/01/08 06:59:58;;;;;;;8.45;1.60;;;16.10;75.10;;;;;;10409133;28;20077;-62
2023/01/08 07:04:59;;;;;;;12.27;1.20;;;15.90;73.80;;;;;;10407830;28;20116;-61
2023/01/08 07:09:59;;;;;;;5.15;2.08;;;15.80;74.40;;;;;;10422475;28;20067;-61
2023/01/08 07:15:01;;;;;;;11.80;1.73;;;15.80;74.70;;;;;;10405613;28;20056;-61
2023/01/08 07:20:02;;;;;;;9.25;1.55;;;15.90;74.80;;;;;;10404886;28;20104;-62
2023/01/08 07:25:04;;;;;;;15.65;1.80;;;15.90;74.60;;;;;;10415118;28;20430;-61
2023/01/08 07:30:05;;;;;;;13.63;1.60;;;15.80;74.70;;;;;;10406868;28;20356;-59
2023/01/08 07:35:07;;;;;;;12.98;3.38;;;15.90;74.70;;;;;;10407138;28;20393;-62
2023/01/08 07:40:11;;;;;;;10.02;2.17;;;16.00;75.10;;;;;;10404638;28;20503;-62
2023/01/08 07:45:12;;;;;;;7.88;1.67;;;16.10;74.70;;;;;;10418631;28;20491;-62
2023/01/08 07:50:13;;;;;;;10.98;1.70;;;16.00;74.80;;;;;;10404901;28;20017;-61
2023/01/08 07:55:13;;;;;;;17.42;4.40;;;16.00;74.60;;;;;;10406757;28;20033;-59
2023/01/08 08:00:14;;;;;;;9.27;2.17;;;16.00;75.10;;;;;;10395753;28;20508;-61
2023/01/08 08:05:17;;;;;;;10.68;1.80;;;15.90;74.80;;;;;;10404134;28;20042;-55
2023/01/08 08:10:17;;;;;;;7.93;1.25;;;15.90;74.80;;;;;;10405541;28;20006;-57
2023/01/08 08:15:18;;;;;;;5.82;1.42;;;15.90;73.50;;;;;;10387818;28;20025;-57
2023/01/08 08:20:19;;;;;;;12.00;1.55;;;15.90;73.00;;;;;;10403488;28;20762;-53
2023/01/08 08:25:19;;;;;;;17.10;2.83;;;15.90;73.00;;;;;;10405406;28;20045;-55
2023/01/08 08:30:20;;;;;;;8.73;1.83;;;15.80;73.70;;;;;;10403980;28;20456;-54
2023/01/08 08:35:21;;;;;;;8.75;2.38;;;15.70;73.70;;;;;;10402754;28;20044;-55
2023/01/08 08:40:23;;;;;;;8.77;2.08;;;15.70;73.80;;;;;;10402972;28;20025;-54
2023/01/08 08:45:24;;;;;;;8.43;1.63;;;15.70;73.50;;;;;;10405485;28;20032;-52
2023/01/08 08:50:25;;;;;;;11.25;2.28;;;15.70;74.00;;;;;;10420466;28;20075;-54
2023/01/08 08:55:27;;;;;;;8.18;2.15;;;15.60;73.60;;;;;;10404557;28;20025;-55
2023/01/08 09:00:28;;;;;;;8.68;2.38;;;15.60;73.50;;;;;;10403499;28;20118;-55
2023/01/08 09:05:29;;;;;;;6.07;1.40;;;15.70;73.20;;;;;;10403676;28;20152;-54
2023/01/08 09:10:29;;;;;;;5.15;1.65;;;15.60;73.30;;;;;;10403668;28;20018;-54
2023/01/08 09:15:30;;;;;;;5.28;1.58;;;15.60;73.00;;;;;;10411394;28;20035;-53
2023/01/08 09:20:31;;;;;;;8.05;1.85;;;15.60;73.10;;;;;;10426153;28;20052;-55
2023/01/08 09:25:31;;;;;;;5.93;1.52;;;15.60;72.90;;;;;;10425956;28;20077;-55
2023/01/08 09:30:33;;;;;;;8.95;1.63;;;15.60;73.10;;;;;;10412611;28;20021;-54
2023/01/08 09:35:33;;;;;;;4.85;1.40;;;15.60;72.90;;;;;;10410996;28;20028;-56
2023/01/08 09:40:41;;;;;;;4.20;1.90;;;15.60;72.70;;;;;;10394662;28;20053;-54
2023/01/08 09:45:44;;;;;;;5.50;1.58;;;15.60;73.00;;;;;;10411367;28;20041;-55
2023/01/08 09:50:47;;;;;;;6.95;1.60;;;15.70;73.00;;;;;;10410841;28;20014;-54
2023/01/08 09:55:57;;;;;;;5.60;1.17;;;15.60;73.00;;;;;;10410126;28;20079;-55
2023/01/08 10:01:01;;;;;;;3.85;1.08;;;15.70;73.00;;;;;;10411390;28;20607;-55
2023/01/08 10:06:11;;;;;;;6.28;1.30;;;15.70;73.10;;;;;;10409424;28;20238;-64
2023/01/08 10:11:14;;;;;;;16.13;2.25;;;15.70;72.80;;;;;;10408872;28;20475;-62
2023/01/08 10:16:29;;;;;;;16.35;2.15;;;15.80;73.10;;;;;;10409531;28;20044;-65
2023/01/08 10:21:39;;;;;;;7.78;2.30;;;15.90;73.10;;;;;;10408249;28;20049;-64
2023/01/08 10:26:39;;;;;;;12.48;2.10;;;16.00;73.10;;;;;;10414785;28;20043;-65
2023/01/08 10:31:53;;;;;;;32.72;2.95;;;16.00;73.40;;;;;;10385318;28;20461;-64
2023/01/08 10:36:55;;;;;;;15.23;2.10;;;16.10;73.60;;;;;;10399559;28;20064;-60
2023/01/08 10:42:04;;;;;;;9.77;2.10;;;16.00;73.40;;;;;;10426612;28;20018;-63
2023/01/08 10:47:05;;;;;;;32.20;4.88;;;16.20;73.30;;;;;;10400680;28;20478;-63
2023/01/08 10:52:26;;;;;;;14.50;2.97;;;16.30;73.00;;;;;;10399597;28;20021;-62
2023/01/08 10:57:29;;;;;;;21.40;2.80;;;16.30;73.50;;;;;;10406334;28;20582;-63
2023/01/08 11:02:36;;;;;;;15.45;4.10;;;16.20;73.20;;;;;;10419360;28;20025;-64
2023/01/08 11:07:39;;;;;;;11.88;3.58;;;16.30;73.70;;;;;;10410214;28;20037;-59
2023/01/08 11:12:40;;;;;;;18.25;3.65;;;16.30;73.70;;;;;;10388368;28;20017;-63
2023/01/08 11:17:41;;;;;;;8.43;3.08;;;16.30;73.60;;;;;;10374242;28;20562;-61
2023/01/08 11:22:41;;;;;;;12.48;2.67;;;16.40;73.30;;;;;;10393657;28;20073;-63
2023/01/08 11:27:44;;;;;;;18.83;3.20;;;16.40;73.30;;;;;;10379200;28;20053;-61
2023/01/08 11:33:03;;;;;;;9.30;2.47;;;16.70;72.10;;;;;;10388540;28;20060;-63
2023/01/08 11:38:07;;;;;;;16.17;3.08;;;16.80;71.80;;;;;;10394047;28;20528;-62
2023/01/08 11:43:35;;;;;;;11.98;3.35;;;17.10;73.20;;;;;;10417142;28;20492;-61
2023/01/08 11:49:20;;;;;;;32.85;3.08;;;17.30;73.50;;;;;;10400701;28;20384;-66
2023/01/08 11:54:30;;;;;;;10.65;2.47;;;17.50;72.90;;;;;;10400758;28;20017;-64
2023/01/08 12:00:07;;;;;;;12.68;3.65;;;17.60;72.60;;;;;;10425263;28;20060;-68
2023/01/08 12:05:42;;;;;;;9.85;2.20;;;17.60;72.80;;;;;;10379577;28;20164;-65
2023/01/08 12:11:04;;;;;;;18.35;3.03;;;17.60;73.00;;;;;;10415717;28;20018;-64
2023/01/08 12:16:57;;;;;;;16.02;3.40;;;17.60;72.90;;;;;;10403060;28;20037;-63
2023/01/08 12:22:22;;;;;;;12.57;3.10;;;17.60;73.70;;;;;;10405734;28;20042;-64
2023/01/08 12:28:18;;;;;;;13.23;2.65;;;17.60;73.40;;;;;;10410538;28;20065;-65
2023/01/08 12:33:53;;;;;;;15.32;2.70;;;17.60;73.90;;;;;;10405012;28;20029;-64
2023/01/08 12:39:08;;;;;;;14.70;3.25;;;17.70;72.40;;;;;;10401230;28;20029;-65
2023/01/08 12:44:11;;;;;;;13.80;3.20;;;17.80;73.30;;;;;;10403991;28;20033;-65
2023/01/08 12:49:29;;;;;;;15.63;2.50;;;17.40;73.50;;;;;;10400400;28;20021;-65
2023/01/08 12:54:47;;;;;;;13.73;2.55;;;17.10;74.30;;;;;;10402657;28;20045;-65
2023/01/08 13:00:21;;;;;;;8.75;3.05;;;16.90;74.60;;;;;;10398410;28;20028;-66
2023/01/08 13:05:21;;;;;;;8.05;2.10;;;16.80;74.60;;;;;;10398916;28;20028;-65
2023/01/08 13:10:33;;;;;;;5.45;1.88;;;16.70;74.50;;;;;;10415774;28;20022;-65
2023/01/08 13:15:34;;;;;;;10.27;2.45;;;16.70;74.40;;;;;;10401509;28;20076;-65
2023/01/08 13:20:35;;;;;;;5.63;1.40;;;16.60;74.30;;;;;;10384384;28;20424;-65
2023/01/08 13:25:37;;;;;;;5.07;1.50;;;16.60;72.70;;;;;;10404766;28;20052;-65
2023/01/08 13:30:45;;;;;;;8.18;2.15;;;16.50;72.20;;;;;;10401165;28;20040;-66
2023/01/08 13:35:45;;;;;;;4.82;1.45;;;16.50;72.30;;;;;;10400982;28;20026;-65
2023/01/08 13:40:46;;;;;;;4.72;1.27;;;16.40;72.60;;;;;;10400619;28;20017;-66
2023/01/08 13:45:59;;;;;;;2.75;1.40;;;16.40;72.30;;;;;;10401235;28;20026;-66
2023/01/08 13:50:59;;;;;;;5.32;1.40;;;16.30;72.20;;;;;;10401383;28;20107;-64
2023/01/08 13:56:06;;;;;;;4.07;1.23;;;16.30;72.30;;;;;;10400863;28;20172;-63
2023/01/08 14:01:08;;;;;;;4.65;1.20;;;16.30;72.30;;;;;;10388768;28;20026;-65
2023/01/08 14:06:25;;;;;;;3.92;1.10;;;16.30;72.10;;;;;;10407768;28;20026;-64
2023/01/08 14:11:45;;;;;;;3.67;1.30;;;16.30;72.20;;;;;;10407231;28;20045;-65
2023/01/08 14:16:47;;;;;;;;;;;16.30;72.40;;;;;;10409285;28;20044;-66
2023/01/08 14:21:54;;;;;;;6.47;1.38;;;16.20;72.20;;;;;;10423244;28;19974;-61
2023/01/08 14:26:58;;;;;;;3.45;0.75;;;16.20;72.50;;;;;;10411005;28;20034;-66
2023/01/08 14:32:00;;;;;;;5.75;1.38;;;16.20;72.40;;;;;;10406803;28;20025;-65
2023/01/08 14:37:00;;;;;;;2.88;1.10;;;16.20;72.40;;;;;;10406167;28;20052;-65
2023/01/08 14:47:38;;;;;;;2.85;1.00;;;16.10;72.00;;;;;;10405967;28;20045;-65
2023/01/08 14:52:39;;;;;;;3.50;1.15;;;16.10;72.00;;;;;;10406828;28;20545;-66
2023/01/08 14:57:46;;;;;;;3.95;1.20;;;16.00;71.70;;;;;;10405873;28;20018;-65
2023/01/08 15:02:47;;;;;;;2.63;0.90;;;16.00;71.70;;;;;;10405612;28;20014;-65
2023/01/08 15:08:00;;;;;;;2.97;0.90;;;16.00;71.70;;;;;;10405051;28;20014;-65
2023/01/08 15:13:02;;;;;;;2.15;0.88;;;16.00;71.80;;;;;;10404660;28;20018;-65
2023/01/08 15:18:07;;;;;;;3.03;1.10;;;15.90;71.80;;;;;;10421451;28;20543;-66
2023/01/08 15:23:25;;;;;;;1.67;0.77;;;15.90;71.80;;;;;;10405119;28;20083;-66
2023/01/08 15:28:26;;;;;;;2.35;1.08;;;15.90;71.80;;;;;;10410095;28;20018;-66
2023/01/08 15:33:27;;;;;;;2.88;1.27;;;15.90;72.00;;;;;;10403988;28;20097;-66
2023/01/08 15:38:28;;;;;;;2.17;0.75;;;15.90;71.80;;;;;;10405237;28;20113;-66
2023/01/08 15:43:29;;;;;;;2.42;0.93;;;15.90;72.00;;;;;;10403687;28;20632;-63
2023/01/08 15:48:29;;;;;;;4.15;1.23;;;15.80;71.70;;;;;;10409432;28;20044;-65
2023/01/08 15:53:30;;;;;;;1.52;1.17;;;15.80;71.40;;;;;;10404779;28;20191;-66
2023/01/08 15:58:31;;;;;;;2.75;1.20;;;15.80;71.50;;;;;;10403440;28;20136;-65
2023/01/08 16:03:31;;;;;;;2.88;0.88;;;15.80;71.70;;;;;;10404585;28;20440;-64
2023/01/08 16:08:32;;;;;;;3.38;1.17;;;15.80;72.20;;;;;;10404498;28;20010;-65
2023/01/08 16:13:32;;;;;;;5.13;0.98;;;15.80;71.50;;;;;;10402601;28;20022;-65
2023/01/08 16:18:33;;;;;;;4.60;1.13;;;15.70;71.70;;;;;;10402303;28;20187;-63
2023/01/08 16:23:39;;;;;;;3.47;0.80;;;15.80;71.90;;;;;;10398243;28;20116;-65
2023/01/08 16:28:40;;;;;;;15.75;2.38;;;15.70;71.70;;;;;;10405330;28;20404;-63
2023/01/08 16:33:40;;;;;;;10.45;2.90;;;15.80;71.80;;;;;;10403088;28;20083;-62
2023/01/08 16:38:41;;;;;;;10.00;3.78;;;15.90;71.60;;;;;;10402902;28;20049;-61
2023/01/08 16:43:44;;;;;;;15.43;5.35;;;15.90;71.10;;;;;;10403175;28;20121;-62
2023/01/08 16:48:45;;;;;;;16.25;7.82;;;15.80;70.90;;;;;;10387518;28;20476;-62
2023/01/08 16:53:46;;;;;;;11.02;5.55;;;16.00;75.00;;;;;;10402375;28;20034;-60
2023/01/08 16:58:50;;;;;;;12.13;6.15;;;16.20;73.60;;;;;;10403747;28;20350;-63
2023/01/08 17:03:51;;;;;;;10.80;4.63;;;16.30;76.50;;;;;;10402602;28;20073;-62
2023/01/08 17:08:51;;;;;;;8.90;5.13;;;16.40;73.60;;;;;;10403895;28;20425;-62
2023/01/08 17:13:52;;;;;;;7.35;5.07;;;16.40;73.00;;;;;;10403950;28;20018;-62
2023/01/08 17:18:53;;;;;;;8.68;4.45;;;16.50;73.20;;;;;;10404744;28;20054;-62
2023/01/08 17:23:53;;;;;;;11.90;5.18;;;16.90;73.90;;;;;;10404038;28;20560;-61
2023/01/08 17:28:54;;;;;;;12.98;8.45;;;16.90;73.80;;;;;;10408920;28;20120;-63
2023/01/08 17:33:55;;;;;;;12.60;7.68;;;16.90;73.90;;;;;;10407063;28;20086;-60
2023/01/08 17:38:55;;;;;;;18.55;8.48;;;16.80;74.20;;;;;;10427229;28;20053;-58
2023/01/08 17:43:56;;;;;;;13.50;9.80;;;16.70;74.60;;;;;;10412017;28;20755;-63
2023/01/08 17:48:57;;;;;;;16.52;10.05;;;16.60;74.40;;;;;;10411388;28;20104;-63
2023/01/08 17:53:58;;;;;;;11.43;9.40;;;16.60;74.00;;;;;;10411469;28;20112;-64
2023/01/08 17:58:59;;;;;;;17.65;9.77;;;16.60;74.20;;;;;;10410476;28;20036;-60
2023/01/08 18:04:00;;;;;;;14.05;10.20;;;16.60;74.20;;;;;;10411437;28;20108;-62
2023/01/08 18:09:01;;;;;;;14.45;9.10;;;16.60;74.10;;;;;;10426640;28;20465;-63
2023/01/08 18:14:02;;;;;;;13.00;9.32;;;16.50;73.40;;;;;;10409951;28;20043;-62
2023/01/08 18:19:03;;;;;;;13.20;10.05;;;16.40;73.30;;;;;;10409590;28;20450;-62
2023/01/08 18:24:04;;;;;;;12.32;9.25;;;16.30;73.50;;;;;;10410557;28;20103;-62
2023/01/08 18:29:05;;;;;;;13.50;8.77;;;16.30;73.30;;;;;;10414060;28;20028;-62
2023/01/08 18:34:07;;;;;;;12.13;10.52;;;16.30;73.50;;;;;;10425547;28;20028;-61
2023/01/08 18:39:10;;;;;;;15.60;8.80;;;16.30;73.50;;;;;;10409911;28;20048;-61
2023/01/08 18:44:10;;;;;;;10.57;8.85;;;16.30;73.60;;;;;;10407404;28;20107;-61
2023/01/08 18:49:11;;;;;;;10.82;9.05;;;16.30;73.80;;;;;;10408947;28;20095;-59
2023/01/08 18:54:12;;;;;;;12.98;9.55;;;16.30;74.00;;;;;;10407386;28;20030;-62
2023/01/08 18:59:13;;;;;;;9.60;8.55;;;16.30;74.00;;;;;;10407037;28;20104;-61
2023/01/08 19:04:17;;;;;;;12.05;8.38;;;16.20;73.30;;;;;;10406798;28;20022;-61
2023/01/08 19:09:17;;;;;;;10.45;8.20;;;16.20;72.90;;;;;;10406923;28;20045;-60
2023/01/08 19:14:18;;;;;;;12.05;9.60;;;16.20;73.20;;;;;;10406343;28;20017;-61
2023/01/08 19:19:19;;;;;;;8.95;7.78;;;16.30;73.60;;;;;;10407727;28;20232;-61
2023/01/08 19:24:20;;;;;;;9.10;8.23;;;16.50;72.80;;;;;;10406682;28;20045;-61
2023/01/08 19:29:20;;;;;;;13.80;8.55;;;16.60;72.10;;;;;;10406244;28;20032;-59
2023/01/08 19:34:21;;;;;;;11.52;10.35;;;16.70;72.00;;;;;;10405979;28;20020;-62
2023/01/08 19:39:22;;;;;;;11.88;10.88;;;16.70;72.30;;;;;;10406614;28;20018;-62
2023/01/08 19:44:23;;;;;;;15.25;14.05;;;16.80;72.60;;;;;;10404349;28;20125;-62
2023/01/08 19:49:24;;;;;;;18.80;17.40;;;16.80;72.40;;;;;;10406064;28;20014;-61
2023/01/08 19:54:25;;;;;;;22.65;20.90;;;16.90;72.40;;;;;;10404632;28;20104;-61
2023/01/08 19:59:25;;;;;;;21.05;19.42;;;16.90;72.60;;;;;;10405565;28;20014;-61
2023/01/08 20:04:27;;;;;;;19.95;18.50;;;17.10;71.90;;;;;;10405275;28;20465;-60
2023/01/08 20:09:28;;;;;;;17.10;15.73;;;17.00;72.00;;;;;;10406879;28;20025;-60
2023/01/08 20:14:29;;;;;;;16.38;14.88;;;16.80;72.70;;;;;;10405070;28;20049;-61
2023/01/08 20:19:29;;;;;;;14.45;13.35;;;16.70;72.80;;;;;;10404129;28;20120;-63
2023/01/08 20:25:48;;;;;;;14.32;12.93;;;16.60;71.80;;;;;;10650663;27;20331;-57
2023/01/08 20:30:48;;;;;;;13.70;12.50;;;16.60;72.70;;;;;;10605902;28;20026;-57
2023/01/08 20:35:51;;;;;;;11.07;10.25;;;16.40;73.00;;;;;;10604413;28;20012;-57
2023/01/08 20:40:51;;;;;;;12.13;10.82;;;16.30;73.20;;;;;;10604024;27;20008;-56
2023/01/08 20:45:52;;;;;;;12.07;11.13;;;16.30;73.20;;;;;;10604845;28;20110;-56
2023/01/08 20:51:02;;;;;;;12.50;11.30;;;16.20;73.10;;;;;;10588374;28;20102;-57
2023/01/08 20:56:05;;;;;;;;;;;16.20;72.90;;;;;;10606001;27;20019;-58
2023/01/08 21:01:27;;;;;;;9.65;8.60;;;16.10;71.80;;;;;;10572417;27;19980;-57
2023/01/08 21:06:29;;;;;;;9.68;8.68;;;16.10;71.50;;;;;;10563556;28;21008;-56
2023/01/08 21:11:30;;;;;;;9.10;7.82;;;16.10;71.30;;;;;;10563275;28;20103;-57
2023/01/08 21:16:33;;;;;;;8.77;7.65;;;16.00;71.30;;;;;;10576953;28;20023;-56
2023/01/08 21:21:36;;;;;;;8.10;7.18;;;16.00;71.40;;;;;;10588146;28;20036;-57
2023/01/08 21:26:38;;;;;;;7.55;6.75;;;16.00;71.50;;;;;;10585026;27;20018;-56
2023/01/08 21:31:39;;;;;;;6.65;6.13;;;15.90;71.30;;;;;;10573008;28;20028;-57
2023/01/08 21:36:39;;;;;;;9.13;8.18;;;15.90;71.40;;;;;;10552769;28;20027;-55
2023/01/08 21:47:17;;;;;;;7.40;5.57;;;15.90;71.00;;;;;;10512215;28;20019;-56
2023/01/08 21:57:38;;;;;;;5.43;4.93;;;15.80;71.20;;;;;;10564747;28;20020;-57
2023/01/08 22:02:40;;;;;;;5.97;5.47;;;15.80;71.30;;;;;;10562301;28;20020;-57
2023/01/08 22:07:40;;;;;;;6.03;4.95;;;15.80;71.30;;;;;;10561504;28;20019;-56
2023/01/08 22:12:41;;;;;;;5.60;4.72;;;15.80;71.30;;;;;;10561473;28;20045;-56
2023/01/08 22:17:42;;;;;;;5.35;4.70;;;15.70;71.20;;;;;;10561460;28;20103;-56
2023/01/08 22:22:45;;;;;;;5.38;4.47;;;15.70;71.10;;;;;;10575715;28;20067;-55
2023/01/08 22:27:50;;;;;;;4.75;4.30;;;15.70;71.20;;;;;;10564660;27;20015;-56
2023/01/08 22:32:50;;;;;;;4.72;4.13;;;15.70;71.20;;;;;;10560009;28;20024;-57
2023/01/08 22:37:51;;;;;;;4.20;3.75;;;15.70;71.00;;;;;;10543133;28;20110;-57
2023/01/08 22:42:52;;;;;;;5.65;3.80;;;15.70;70.80;;;;;;10557529;28;20161;-57
2023/01/08 22:47:52;;;;;;;5.03;4.25;;;15.70;70.90;;;;;;10531812;28;20024;-56
2023/01/08 22:52:53;;;;;;;6.20;3.80;;;15.70;70.80;;;;;;10527714;28;20059;-56
2023/01/08 22:57:54;;;;;;;4.20;3.20;;;15.70;71.20;;;;;;10545709;28;20493;-56
2023/01/08 23:02:55;;;;;;;4.85;3.53;;;15.70;71.10;;;;;;10558053;28;20063;-57
2023/01/08 23:07:55;;;;;;;4.30;3.40;;;15.70;71.20;;;;;;10547561;28;20027;-57
2023/01/08 23:12:56;;;;;;;4.60;2.97;;;15.60;71.10;;;;;;10530636;28;20036;-57
2023/01/08 23:17:56;;;;;;;4.32;3.28;;;15.60;70.90;;;;;;10531943;28;20024;-56
2023/01/08 23:22:57;;;;;;;3.50;2.80;;;15.70;70.70;;;;;;10531229;28;20446;-55
2023/01/08 23:27:58;;;;;;;4.80;3.40;;;15.70;70.80;;;;;;10554425;27;20020;-56
2023/01/08 23:32:59;;;;;;;3.67;2.45;;;15.70;70.90;;;;;;10544390;28;20015;-56
2023/01/08 23:37:59;;;;;;;5.07;3.00;;;15.70;71.00;;;;;;10557537;28;20102;-56
2023/01/08 23:43:00;;;;;;;4.63;3.10;;;15.70;70.80;;;;;;10526175;28;20032;-57
2023/01/08 23:48:01;;;;;;;4.00;2.53;;;15.80;70.70;;;;;;10535866;28;20524;-57
2023/01/08 23:53:02;;;;;;;4.22;2.60;;;15.70;70.70;;;;;;10557189;28;20031;-57
2023/01/08 23:58:03;;;;;;;3.25;2.50;;;15.70;70.80;;;;;;10571809;28;20027;-55
